^^
Station Historical Data
Daily Summary for January 5, 2018 Units:  Metric    English   Both
« Previous Day
Next Day »
Daily Weekly Monthly Yearly Custom
  High: Low: Average:
Temperature: 40.6 °C 24.3 °C 31.6 °C
Dew Point: 9.4 °C -3.2 °C 5.9 °C
Humidity: 37% 7% 23%
Wind Speed: 30.6km/h 0km/h 15.3km/h
Wind Gust: 32.2km/h - -
Wind- - SSW
Pressure: 1006.3 hPa 1001.2 hPa -
Precipitation: 0 mm    
Historical Graphs
 
 
Tabular Data for January 5, 2018
Time Temperature Dew Point Pressure Wind Wind Speed Wind Gust Humidity Rainfall Rate (Hourly) solar Conditions
06:18 24.3 °C 8.7 °C 1006.3 hPa Calm     37% 0 mm 18.0 W/m2
06:28 24.3 °C 8.7 °C 1006.3 hPa Calm     37% 0 mm 26.0 W/m2
06:40 24.8 °C 8.7 °C 1006.3 hPa SW 11.1 km/h 12.9 km/h 36% 0 mm 47.0 W/m2
06:58 25.2 °C 9.1 °C 1006.3 hPa SW 13 km/h 14.5 km/h 36% 0 mm 109.0 W/m2
07:07 25.6 °C 9.4 °C 1006 hPa SW 14.3 km/h 19.3 km/h 36% 0 mm 149.0 W/m2
07:16 25.8 °C 9.2 °C 1006 hPa SW 7.9 km/h 16.1 km/h 35% 0 mm 188.0 W/m2
07:30 26.4 °C 9.3 °C 1006 hPa SW 11.1 km/h 11.3 km/h 34% 0 mm 243.0 W/m2
07:35 26.7 °C 9.1 °C 1006 hPa SW 17.7 km/h 17.7 km/h 33% 0 mm 260.0 W/m2
07:45 26.9 °C 9.3 °C 1006.3 hPa SW 19.5 km/h 22.5 km/h 33% 0 mm 294.0 W/m2
07:50 27.1 °C 9.4 °C 1006.3 hPa SW 17.7 km/h 20.9 km/h 33% 0 mm 311.0 W/m2
07:56 27.2 °C 9.1 °C 1006.3 hPa SW 20.9 km/h 20.9 km/h 32% 0 mm 329.0 W/m2
08:08 27.7 °C 9 °C 1006.3 hPa SW 16.3 km/h 20.9 km/h 31% 0 mm 362.0 W/m2
08:13 27.8 °C 9.1 °C 1006.3 hPa SW 16.3 km/h 22.5 km/h 31% 0 mm 380.0 W/m2
08:19 28 °C 8.8 °C 1006.3 hPa SW 19.5 km/h 19.5 km/h 30% 0 mm 397.0 W/m2
08:55 29.8 °C 7.7 °C 1006 hPa SW 11.1 km/h 14.5 km/h 25% 0 mm 513.0 W/m2
09:22 31.1 °C 6.9 °C 1006 hPa SW 14.3 km/h 16.1 km/h 22% 0 mm 629.0 W/m2
09:38 31.7 °C 6.7 °C 1006 hPa SW 11.1 km/h 17.7 km/h 21% 0 mm 647.0 W/m2
09:43 32 °C 6.9 °C 1006 hPa SW 16.3 km/h 17.7 km/h 21% 0 mm 747.0 W/m2
09:48 32.3 °C 6.5 °C 1006 hPa SW 9.7 km/h 20.9 km/h 20% 0 mm 773.0 W/m2
09:59 33.1 °C 6.4 °C 1006 hPa SW 13 km/h 14.5 km/h 19% 0 mm 281.0 W/m2
10:13 33.6 °C 6.8 °C 1006 hPa SW 20.9 km/h 20.9 km/h 19% 0 mm 784.0 W/m2
10:23 33.8 °C 7 °C 1006 hPa SW 17.7 km/h 20.9 km/h 19% 0 mm 853.0 W/m2
11:03 34.2 °C 5.7 °C 1006 hPa SW 14.3 km/h 20.9 km/h 17% 0 mm 680.0 W/m2
11:23 35.7 °C 4.1 °C 1005.6 hPa SSW 19.5 km/h 22.5 km/h 14% 0 mm 940.0 W/m2
11:29 35.7 °C 4.1 °C 1005.6 hPa SSW 13 km/h 17.7 km/h 14% 0 mm 930.0 W/m2
11:51 36.4 °C 3.6 °C 1005.6 hPa SW 14.3 km/h 25.7 km/h 13% 0 mm 939.0 W/m2
14:30 39.3 °C 2.1 °C 1002.9 hPa SW 7.9 km/h 17.7 km/h 10% 0 mm 911.0 W/m2
15:30 40.1 °C -0.4 °C 1002.6 hPa South 14.3 km/h 22.5 km/h 8% 0 mm 800.0 W/m2
15:45 40.1 °C -0.4 °C 1002.3 hPa SSE 25.9 km/h 27.4 km/h 8% 0 mm 763.0 W/m2
16:12 40.6 °C -1.9 °C 1001.9 hPa South 20.9 km/h 22.5 km/h 7% 0 mm 675.0 W/m2
16:26 40.4 °C -2 °C 1001.6 hPa SSW 14.3 km/h 27.4 km/h 7% 0 mm 631.0 W/m2
16:32 40.1 °C -2.2 °C 1001.6 hPa SSW 14.3 km/h 17.7 km/h 7% 0 mm 613.0 W/m2
16:37 40.1 °C -2.2 °C 1001.6 hPa SSW 14.3 km/h 24.1 km/h 7% 0 mm 598.0 W/m2
16:47 39.9 °C -0.6 °C 1001.2 hPa SSW 7.9 km/h 14.5 km/h 8% 0 mm 564.0 W/m2
18:41 38.7 °C -3.2 °C 1001.2 hPa South 25.9 km/h 29 km/h 7% 0 mm 174.0 W/m2
18:53 38.3 °C -0.1 °C 1001.2 hPa SSW 30.6 km/h 30.6 km/h 9% 0 mm 130.0 W/m2
19:07 37.5 °C 0.7 °C 1001.6 hPa South 30.6 km/h 32.2 km/h 10% 0 mm 77.0 W/m2
20:16 34.3 °C 8.1 °C 1002.6 hPa SSW 17.7 km/h 27.4 km/h 20% 0 mm 0.0 W/m2
20:42 33.1 °C 9.2 °C 1002.9 hPa SW 25.9 km/h 27.4 km/h 23% 0 mm 0.0 W/m2
21:19 31.3 °C 8.9 °C 1003.6 hPa SSW 20.9 km/h 24.1 km/h 25% 0 mm 0.0 W/m2
21:27 30.9 °C 8.6 °C 1003.9 hPa SSW 17.7 km/h 24.1 km/h 25% 0 mm 0.0 W/m2
21:43 30.3 °C 8.7 °C 1003.9 hPa South 16.3 km/h 27.4 km/h 26% 0 mm 0.0 W/m2
21:47 30.2 °C 8.6 °C 1003.9 hPa South 20.9 km/h 22.5 km/h 26% 0 mm 0.0 W/m2
22:00 29.9 °C 8.3 °C 1004.3 hPa South 19.5 km/h 27.4 km/h 26% 0 mm 0.0 W/m2
22:24 29.3 °C 7.2 °C 1005 hPa SSW 13 km/h 24.1 km/h 25% 0 mm 0.0 W/m2
22:30 29.2 °C 7.2 °C 1005 hPa South 11.1 km/h 16.1 km/h 25% 0 mm 0.0 W/m2
22:40 28.9 °C 6.3 °C 1005.3 hPa South 19.5 km/h 22.5 km/h 24% 0 mm 0.0 W/m2
22:52 28.6 °C 6.6 °C 1005.3 hPa South 14.3 km/h 17.7 km/h 25% 0 mm 0.0 W/m2
23:03 28.5 °C 7.1 °C 1005.6 hPa Calm   6.4 km/h 26% 0 mm 0.0 W/m2
23:19 28 °C 6.7 °C 1005.3 hPa SSW 7.9 km/h 11.3 km/h 26% 0 mm 0.0 W/m2
23:29 27.3 °C 7.2 °C 1005.3 hPa SSW 13 km/h 16.1 km/h 28% 0 mm 0.0 W/m2
23:43 26.9 °C 7.9 °C 1005.3 hPa SSW 14.3 km/h 19.3 km/h 30% 0 mm 0.0 W/m2
23:58 26.5 °C 8.5 °C 1005.3 hPa SSW 14.3 km/h 17.7 km/h 32% 0 mm 0.0 W/m2
Canyon Roadhouse, Fishriver Canyon, Namibia
Compliments of Weather Underground - 1.75 mb